Time;durP1;ratioP1;P1;durP2;ratioP2;P2;SDS_P1;SDS_P2;PMS_P1;PMS_P2;Temp;Humidity;BMP_temperature;BMP_pressure;BME280_temperature;BME280_humidity;BME280_pressure;Samples;Min_cycle;Max_cycle;Signal;HPM_P1;HPM_P2
2023/07/15 00:00:55;;;;;;;4.47;2.50;;;;;;;-146.25;66.55;52053.94;2087775;28;36018;-71
2023/07/15 00:01:57;;;;;;;4.80;2.40;;;;;;;-146.25;66.50;52058.00;2088280;28;31868;-72
2023/07/15 00:02:58;;;;;;;6.63;2.78;;;;;;;-146.25;66.79;52055.97;2088142;28;35188;-72
2023/07/15 00:04:00;;;;;;;4.97;2.40;;;;;;;-146.25;67.00;52070.16;2087486;28;40739;-71
2023/07/15 00:05:02;;;;;;;3.13;2.33;;;;;;;-146.25;66.72;52084.34;2088795;28;20069;-71
2023/07/15 00:06:05;;;;;;;5.20;2.50;;;;;;;-146.25;66.45;52045.81;2087663;28;36849;-72
2023/07/15 00:07:08;;;;;;;6.07;2.30;;;;;;;-146.25;66.23;52092.44;2088563;28;30003;-71
2023/07/15 00:08:09;;;;;;;4.25;2.42;;;;;;;-146.25;66.55;52064.06;2088161;28;34248;-71
2023/07/15 00:09:11;;;;;;;3.30;2.13;;;;;;;-146.25;66.19;52066.09;2088667;28;20097;-71
2023/07/15 00:10:13;;;;;;;5.28;2.45;;;;;;;-146.25;66.45;52070.16;2087714;28;36974;-72
2023/07/15 00:11:35;;;;;;;5.63;2.50;;;;;;;-146.25;66.06;52058.00;2087833;28;36755;-71
2023/07/15 00:12:39;;;;;;;3.83;2.15;;;;;;;-146.25;65.71;52080.28;2088184;28;33920;-71
2023/07/15 00:13:40;;;;;;;5.63;2.38;;;;;;;-146.25;65.76;52035.69;2087944;28;35397;-72
2023/07/15 00:14:42;;;;;;;4.13;2.15;;;;;;;-146.25;66.00;52029.59;2087823;28;35310;-71
2023/07/15 00:15:47;;;;;;;5.35;2.60;;;;;;;-146.25;65.86;52066.09;2088127;28;36127;-71
2023/07/15 00:16:50;;;;;;;4.47;2.50;;;;;;;-146.25;65.91;52074.22;2087914;28;31254;-71
2023/07/15 00:17:54;;;;;;;4.45;2.40;;;;;;;-146.25;65.71;52084.34;2096155;28;33603;-72
2023/07/15 00:18:58;;;;;;;3.92;2.30;;;;;;;-146.25;65.79;52100.56;2094782;28;36257;-72
2023/07/15 00:19:59;;;;;;;4.07;2.33;;;;;;;-146.25;65.58;52049.88;2088509;28;34321;-71
2023/07/15 00:21:15;;;;;;;4.45;2.40;;;;;;;-146.25;65.72;52072.19;2087861;28;36193;-71
2023/07/15 00:22:16;;;;;;;4.45;2.42;;;;;;;-146.25;65.41;52055.97;2095940;28;34833;-72
2023/07/15 00:23:22;;;;;;;5.00;2.58;;;;;;;-146.25;65.67;52051.91;2094082;28;35446;-72
2023/07/15 00:24:25;;;;;;;4.72;2.58;;;;;;;-146.25;65.42;52021.50;2095656;28;38265;-71
2023/07/15 00:25:27;;;;;;;4.30;2.67;;;;;;;-146.25;65.73;52055.97;2095389;28;20156;-71
2023/07/15 00:26:32;;;;;;;5.57;2.33;;;;;;;-146.25;65.55;52076.22;2088109;28;37623;-71
2023/07/15 00:27:35;;;;;;;3.40;2.28;;;;;;;-146.25;65.60;52074.22;2087367;28;20112;-72
2023/07/15 00:28:39;;;;;;;4.07;2.05;;;;;;;-146.25;65.53;52049.88;2087936;28;20049;-71
2023/07/15 00:29:41;;;;;;;5.00;2.60;;;;;;;-146.25;65.48;52060.00;2088517;28;26901;-71
2023/07/15 00:30:55;;;;;;;4.35;2.38;;;;;;;-146.25;65.36;52092.44;2088910;28;20045;-72
2023/07/15 00:31:57;;;;;;;5.57;2.65;;;;;;;-146.25;65.44;52051.91;2088333;28;27981;-71
2023/07/15 00:32:59;;;;;;;4.65;2.40;;;;;;;-146.25;65.23;52055.97;2087686;28;32210;-72
2023/07/15 00:34:01;;;;;;;6.68;2.20;;;;;;;-146.25;65.73;52045.81;2088010;28;29802;-72
2023/07/15 00:35:28;;;;;;;5.10;2.35;;;;;;;-146.25;65.87;52066.09;2088340;28;20123;-71
2023/07/15 00:36:32;;;;;;;5.20;2.25;;;;;;;-146.25;66.00;52078.25;2096309;28;20955;-72
2023/07/15 00:37:36;;;;;;;4.18;2.60;;;;;;;-146.25;66.08;52080.28;2087555;28;27293;-71
2023/07/15 00:38:42;;;;;;;4.97;2.38;;;;;;;-146.25;65.95;52066.09;2079948;28;33127;-72
2023/07/15 00:39:45;;;;;;;4.55;2.30;;;;;;;-146.25;66.05;52051.91;2079557;28;21759;-72
2023/07/15 00:40:48;;;;;;;4.97;2.40;;;;;;;-146.25;66.38;52068.13;2079640;28;30497;-72
2023/07/15 00:41:55;;;;;;;7.55;2.33;;;;;;;-146.25;66.45;52092.44;2086562;28;33302;-71
2023/07/15 00:43:58;;;;;;;4.30;2.45;;;;;;;-146.25;66.62;52100.56;2080713;28;20969;-72
2023/07/15 00:44:59;;;;;;;4.22;2.20;;;;;;;-146.25;66.22;52068.13;2088509;28;27559;-72
2023/07/15 00:46:28;;;;;;;4.40;2.65;;;;;;;-146.25;66.50;52088.41;2087439;28;21219;-72
2023/07/15 00:48:06;;;;;;;6.35;2.60;;;;;;;-146.25;66.48;52025.53;2082770;28;26567;-71
2023/07/15 00:49:19;;;;;;;3.78;2.35;;;;;;;-146.25;66.51;52055.97;2079508;28;20084;-72
2023/07/15 00:50:22;;;;;;;5.72;2.30;;;;;;;-146.25;66.70;52068.13;2071971;28;38193;-72
2023/07/15 00:51:29;;;;;;;4.03;2.38;;;;;;;-146.25;67.07;52076.22;2080399;28;31617;-72
2023/07/15 00:52:32;;;;;;;3.67;2.10;;;;;;;-146.25;66.36;52082.31;2087642;28;20157;-71
2023/07/15 00:53:34;;;;;;;4.57;2.33;;;;;;;-146.25;66.69;52088.41;2088049;28;20925;-71
2023/07/15 00:54:40;;;;;;;2.60;1.85;;;;;;;-146.25;67.08;52051.91;2087080;28;26450;-72
2023/07/15 00:55:41;;;;;;;3.05;2.15;;;;;;;-146.25;66.71;52096.50;2087152;28;24249;-72
2023/07/15 00:56:47;;;;;;;5.00;2.40;;;;;;;-146.25;67.19;52090.44;2079912;28;20128;-71
2023/07/15 00:57:51;;;;;;;3.90;2.67;;;;;;;-146.25;66.89;52088.41;2087428;28;27600;-71
2023/07/15 00:58:53;;;;;;;2.95;2.20;;;;;;;-146.25;66.97;52096.50;2086441;28;20127;-72
2023/07/15 00:59:58;;;;;;;4.00;2.40;;;;;;;-146.25;66.56;52062.03;2078997;28;29562;-72
2023/07/15 01:01:00;;;;;;;4.88;2.22;;;;;;;-146.25;66.76;52088.41;2079352;28;20046;-71
2023/07/15 01:02:07;;;;;;;4.97;2.08;;;;;;;-146.25;67.32;52035.69;2079582;28;30104;-71
2023/07/15 01:03:09;;;;;;;6.50;2.72;;;;;;;-146.25;67.26;52082.31;2078719;28;27236;-72
2023/07/15 01:04:11;;;;;;;3.03;2.10;;;;;;;-146.25;67.19;52051.91;2079740;28;20144;-71
2023/07/15 01:05:15;;;;;;;3.60;2.05;;;;;;;-146.25;67.50;52074.22;2087381;28;22391;-71
2023/07/15 01:06:16;;;;;;;3.85;2.35;;;;;;;-146.25;67.64;52060.00;2079131;28;30024;-72
2023/07/15 01:07:18;;;;;;;4.05;2.40;;;;;;;-146.25;67.48;52086.38;2079306;28;20038;-72
2023/07/15 01:08:23;;;;;;;3.58;2.58;;;;;;;-146.25;67.16;52084.34;2078911;28;32615;-72
2023/07/15 01:09:27;;;;;;;3.45;2.03;;;;;;;-146.25;67.42;52041.75;2078552;28;29222;-71
2023/07/15 01:10:29;;;;;;;2.50;1.90;;;;;;;-146.25;67.67;52092.44;2079417;28;20149;-72
2023/07/15 01:11:31;;;;;;;4.22;2.42;;;;;;;-146.25;67.63;52092.44;2078577;28;31163;-72
2023/07/15 01:12:34;;;;;;;3.83;1.70;;;;;;;-146.25;67.24;52062.03;2079945;28;20050;-72
2023/07/15 01:13:35;;;;;;;6.03;2.40;;;;;;;-146.25;67.45;52092.44;2079287;28;30551;-72
2023/07/15 01:14:37;;;;;;;3.25;2.13;;;;;;;-146.25;67.41;52084.34;2078679;28;35947;-72
2023/07/15 01:15:39;;;;;;;5.03;2.33;;;;;;;-146.25;67.68;52088.41;2078944;28;23785;-72
2023/07/15 01:16:41;;;;;;;3.70;2.20;;;;;;;-146.25;67.63;52076.22;2080024;28;20906;-72
2023/07/15 01:17:43;;;;;;;3.35;2.33;;;;;;;-146.25;67.20;52076.22;2080323;28;20990;-71
2023/07/15 01:18:44;;;;;;;2.90;1.90;;;;;;;-146.25;67.78;52100.56;2078929;28;21836;-72
2023/07/15 01:19:46;;;;;;;3.80;2.17;;;;;;;-146.25;67.63;52090.44;2079089;28;29001;-72
2023/07/15 01:20:50;;;;;;;3.35;2.10;;;;;;;-146.25;67.61;52086.38;2078886;28;30479;-72
2023/07/15 01:21:53;;;;;;;4.18;2.22;;;;;;;-146.25;67.94;52098.53;2078873;28;28734;-71
2023/07/15 01:22:55;;;;;;;4.00;2.20;;;;;;;-146.25;67.84;52096.50;2079735;28;25370;-72
2023/07/15 01:23:58;;;;;;;4.70;1.95;;;;;;;-146.25;68.08;52084.34;2079222;28;20038;-72
2023/07/15 01:25:00;;;;;;;3.75;2.17;;;;;;;-146.25;67.84;52086.38;2070584;28;32384;-72
2023/07/15 01:26:02;;;;;;;5.47;2.00;;;;;;;-146.25;67.80;52068.13;2084267;28;28748;-72
2023/07/15 01:27:08;;;;;;;3.63;2.25;;;;;;;-146.25;68.04;52084.34;2079612;28;31432;-72
2023/07/15 01:28:10;;;;;;;3.83;2.10;;;;;;;-146.25;67.88;52068.13;2079034;28;35787;-72
2023/07/15 01:29:13;;;;;;;6.32;1.90;;;;;;;-146.25;67.69;52088.41;2080332;28;20252;-72
2023/07/15 01:30:16;;;;;;;6.50;2.40;;;;;;;-146.25;67.94;52084.34;2079528;28;34929;-72
2023/07/15 01:31:21;;;;;;;4.65;2.10;;;;;;;-146.25;68.02;52084.34;2079604;28;31438;-72
2023/07/15 01:32:23;;;;;;;4.15;2.03;;;;;;;-146.25;68.10;52066.09;2079599;28;22759;-72
2023/07/15 01:33:27;;;;;;;4.60;2.10;;;;;;;-146.25;68.00;52066.09;2079231;28;20048;-72
2023/07/15 01:34:30;;;;;;;3.28;2.00;;;;;;;-146.25;67.84;52092.44;2078888;28;30146;-72
2023/07/15 01:35:32;;;;;;;3.75;2.17;;;;;;;-146.25;67.97;52072.19;2078895;28;29181;-72
2023/07/15 01:36:34;;;;;;;5.28;2.17;;;;;;;-146.25;68.37;52116.78;2079057;28;29007;-72
2023/07/15 01:37:36;;;;;;;4.43;2.20;;;;;;;-146.25;68.14;52058.00;2080185;28;20156;-72
2023/07/15 01:38:38;;;;;;;2.50;1.90;;;;;;;-146.25;68.06;52084.34;2087153;28;26463;-72
2023/07/15 01:39:39;;;;;;;4.75;1.77;;;;;;;-146.25;68.55;52068.13;2087415;28;29907;-72
2023/07/15 01:40:44;;;;;;;5.53;2.30;;;;;;;-146.25;67.76;52100.56;2122783;22;20801;-74
2023/07/15 01:41:45;;;;;;;2.28;1.98;;;;;;;-146.25;68.20;52058.00;2096574;28;20044;-72
2023/07/15 01:42:50;;;;;;;4.38;2.00;;;;;;;-146.25;67.95;52064.06;2095991;28;20414;-72
2023/07/15 01:43:54;;;;;;;2.30;1.98;;;;;;;-146.25;67.58;52084.34;2095651;28;20048;-72
2023/07/15 01:44:56;;;;;;;3.90;2.33;;;;;;;-146.25;67.37;52072.19;2095526;28;29705;-73
2023/07/15 01:46:00;;;;;;;3.78;1.80;;;;;;;-146.25;67.65;52060.00;2095737;28;29012;-72
2023/07/15 01:47:01;;;;;;;3.40;1.55;;;;;;;-146.25;67.14;52086.38;2096316;28;24364;-72
2023/07/15 01:48:04;;;;;;;3.03;1.58;;;;;;;-146.25;67.04;52070.16;2103052;28;39700;-73
2023/07/15 01:49:11;;;;;;;5.57;2.10;;;;;;;-146.25;66.99;52092.44;2095707;28;20041;-73
2023/07/15 01:50:14;;;;;;;4.68;2.10;;;;;;;-146.25;66.93;52051.91;2088323;28;20029;-71
2023/07/15 01:51:16;;;;;;;5.03;1.83;;;;;;;-146.25;67.01;52064.06;2087675;28;26842;-73
2023/07/15 01:52:18;;;;;;;3.78;2.20;;;;;;;-146.25;66.80;52062.03;2095735;28;27413;-73
2023/07/15 01:53:21;;;;;;;3.90;2.00;;;;;;;-146.25;67.02;52074.22;2095477;28;30426;-73
2023/07/15 01:54:23;;;;;;;2.97;2.03;;;;;;;-146.25;66.56;52092.44;2095682;28;20187;-72
2023/07/15 01:55:25;;;;;;;4.00;1.60;;;;;;;-146.25;66.50;52064.06;2095696;28;20044;-72
2023/07/15 01:56:27;;;;;;;7.32;1.90;;;;;;;-146.25;66.73;52082.31;2095414;28;32774;-73
2023/07/15 01:57:30;;;;;;;3.13;1.85;;;;;;;-146.25;66.31;52027.56;2095645;28;20094;-73
2023/07/15 01:58:33;;;;;;;4.07;1.80;;;;;;;-146.25;66.34;52082.31;2087403;28;20227;-72
2023/07/15 01:59:35;;;;;;;3.53;1.90;;;;;;;-146.25;66.30;52058.00;2079436;28;20053;-73
2023/07/15 02:00:38;;;;;;;3.58;1.80;;;;;;;-146.25;65.99;52053.94;2087198;28;20183;-73
2023/07/15 02:01:41;;;;;;;3.67;1.80;;;;;;;-146.25;65.96;52070.16;2104740;28;20044;-72
2023/07/15 02:02:43;;;;;;;3.83;1.70;;;;;;;-146.25;65.73;52068.13;2112281;28;20048;-72
2023/07/15 02:03:45;;;;;;;5.40;1.88;;;;;;;-146.25;66.37;52076.22;2111981;28;24753;-72
2023/07/15 02:04:49;;;;;;;3.67;1.85;;;;;;;-146.25;66.23;52051.91;2096268;28;23224;-72
2023/07/15 02:05:55;;;;;;;3.83;1.65;;;;;;;-146.25;65.93;52064.06;2096004;28;20814;-72
2023/07/15 02:06:57;;;;;;;4.47;1.60;;;;;;;-146.25;65.99;52080.28;2096214;28;24587;-74
2023/07/15 02:08:02;;;;;;;5.18;1.98;;;;;;;-146.25;65.52;52094.47;2096593;28;27245;-73
2023/07/15 02:09:07;;;;;;;4.18;1.50;;;;;;;-146.25;65.23;52084.34;2105972;28;20056;-72
2023/07/15 02:10:10;;;;;;;4.13;1.73;;;;;;;-146.25;65.76;52047.84;2112575;28;27046;-73
2023/07/15 02:11:12;;;;;;;2.78;1.70;;;;;;;-146.25;65.60;52106.66;2098711;28;20045;-70
2023/07/15 02:12:14;;;;;;;2.78;1.65;;;;;;;-146.25;65.80;52088.41;2098162;28;29228;-73
2023/07/15 02:13:15;;;;;;;3.40;1.60;;;;;;;-146.25;65.46;52110.69;2096351;28;31864;-71
2023/07/15 02:14:17;;;;;;;3.38;1.70;;;;;;;-146.25;65.05;52068.13;2089129;28;20235;-72
2023/07/15 02:15:19;;;;;;;3.05;1.77;;;;;;;-146.25;64.89;52066.09;2105219;28;20097;-72
2023/07/15 02:16:21;;;;;;;3.97;1.90;;;;;;;-146.25;64.90;52068.13;2113979;28;20043;-72
2023/07/15 02:17:26;;;;;;;3.03;1.98;;;;;;;-146.25;64.98;52049.88;2096923;28;20037;-74
2023/07/15 02:18:27;;;;;;;3.85;1.73;;;;;;;-146.25;64.99;52066.09;2097166;28;24639;-73
2023/07/15 02:19:34;;;;;;;5.10;1.67;;;;;;;-146.25;64.86;52084.34;2097625;28;28428;-72
2023/07/15 02:20:38;;;;;;;2.55;1.80;;;;;;;-146.25;65.29;52088.41;2097243;28;34729;-71
2023/07/15 02:21:39;;;;;;;2.35;1.40;;;;;;;-146.25;65.16;52049.88;2097298;28;30497;-73
2023/07/15 02:22:42;;;;;;;3.78;1.80;;;;;;;-146.25;64.60;52047.84;2096179;28;35859;-72
2023/07/15 02:23:47;;;;;;;3.13;1.48;;;;;;;-146.25;64.88;52058.00;2096997;28;20064;-73
2023/07/15 02:24:49;;;;;;;5.20;1.80;;;;;;;-146.25;64.89;52084.34;2114241;28;20927;-73
2023/07/15 02:25:50;;;;;;;6.07;1.88;;;;;;;-146.25;65.21;52074.22;2109105;28;28772;-72
2023/07/15 02:26:52;;;;;;;3.15;1.33;;;;;;;-146.25;65.13;52092.44;2097240;28;31638;-73
2023/07/15 02:27:56;;;;;;;4.03;1.63;;;;;;;-146.25;65.04;52055.97;2097156;28;24520;-72
2023/07/15 02:28:58;;;;;;;3.28;1.60;;;;;;;-146.25;65.15;52055.97;2097691;28;20045;-73
2023/07/15 02:30:00;;;;;;;2.35;1.80;;;;;;;-146.25;64.98;52080.28;2096869;28;20899;-73
2023/07/15 02:31:02;;;;;;;3.95;1.98;;;;;;;-146.25;64.74;52096.50;2097121;28;20965;-73
2023/07/15 02:32:05;;;;;;;2.67;1.58;;;;;;;-146.25;65.04;52051.91;2097271;28;27244;-72
2023/07/15 02:33:06;;;;;;;2.72;1.50;;;;;;;-146.25;64.54;52072.19;2096663;28;28233;-72
2023/07/15 02:34:09;;;;;;;4.20;1.60;;;;;;;-146.25;64.41;52068.13;2096680;28;33878;-72
2023/07/15 02:35:13;;;;;;;3.65;1.50;;;;;;;-146.25;64.53;52076.22;2097648;28;32318;-73
2023/07/15 02:36:16;;;;;;;2.47;1.48;;;;;;;-146.25;64.29;52092.44;2097026;28;31240;-73
2023/07/15 02:37:18;;;;;;;4.53;1.63;;;;;;;-146.25;63.78;52086.38;2097066;28;20052;-73
2023/07/15 02:38:19;;;;;;;4.13;1.60;;;;;;;-146.25;64.28;52058.00;2097305;28;20032;-73
2023/07/15 02:39:23;;;;;;;3.38;1.55;;;;;;;-146.25;64.12;52098.53;2097065;28;36912;-72
2023/07/15 02:40:26;;;;;;;2.45;1.63;;;;;;;-146.25;64.25;52076.22;2096770;28;20776;-72
2023/07/15 02:41:32;;;;;;;4.18;1.60;;;;;;;-146.25;64.71;52104.63;2105020;28;28492;-74
2023/07/15 02:42:34;;;;;;;5.32;1.80;;;;;;;-146.25;64.46;52104.63;2104302;28;35232;-73
2023/07/15 02:43:35;;;;;;;4.43;1.50;;;;;;;-146.25;64.68;52112.72;2097245;28;20108;-74
2023/07/15 02:44:37;;;;;;;2.47;1.40;;;;;;;-146.25;65.17;52110.69;2097246;28;20144;-73
2023/07/15 02:45:39;;;;;;;6.88;1.50;;;;;;;-146.25;64.68;52072.19;2096360;28;34374;-73
2023/07/15 02:46:41;;;;;;;3.67;1.50;;;;;;;-146.25;64.60;52051.91;2097009;28;21812;-74
2023/07/15 02:47:43;;;;;;;6.20;1.73;;;;;;;-146.25;64.98;52076.22;2097512;28;24710;-73
2023/07/15 02:48:46;;;;;;;3.95;1.75;;;;;;;-146.25;64.97;52082.31;2097679;28;20911;-70
2023/07/15 02:49:52;;;;;;;5.65;1.58;;;;;;;-146.25;64.78;52090.44;2097278;28;32028;-72
2023/07/15 02:50:55;;;;;;;2.67;1.20;;;;;;;-146.25;65.06;52080.28;2096567;28;29110;-73
2023/07/15 02:51:57;;;;;;;2.95;1.50;;;;;;;-146.25;65.33;52080.28;2097297;28;20041;-72
2023/07/15 02:53:03;;;;;;;3.33;1.60;;;;;;;-146.25;65.63;52033.66;2096331;28;25509;-72
2023/07/15 02:54:06;;;;;;;4.68;1.73;;;;;;;-146.25;65.21;52043.78;2097775;28;20087;-73
2023/07/15 02:55:12;;;;;;;3.95;1.60;;;;;;;-146.25;65.39;52068.13;2104663;28;33716;-72
2023/07/15 02:56:13;;;;;;;2.78;1.50;;;;;;;-146.25;64.73;52064.06;2104642;28;22893;-73
2023/07/15 02:57:15;;;;;;;3.80;1.92;;;;;;;-146.25;64.94;52092.44;2097019;28;29164;-75
2023/07/15 02:58:18;;;;;;;2.38;1.50;;;;;;;-146.25;64.36;52076.22;2097674;28;20049;-74
2023/07/15 02:59:20;;;;;;;3.58;1.80;;;;;;;-146.25;64.40;52053.94;2097878;28;20170;-73
2023/07/15 03:00:24;;;;;;;3.45;1.50;;;;;;;-146.25;64.28;52112.72;2097360;28;28200;-73
2023/07/15 03:01:28;;;;;;;2.92;1.33;;;;;;;-146.25;63.40;52082.31;2096497;28;25680;-73
2023/07/15 03:02:30;;;;;;;4.18;1.38;;;;;;;-146.25;64.08;52096.50;2096408;28;31949;-72
2023/07/15 03:03:32;;;;;;;3.30;1.65;;;;;;;-146.25;64.16;52096.50;2097604;28;20905;-72
2023/07/15 03:04:37;;;;;;;4.18;1.73;;;;;;;-146.25;64.06;52068.13;2097912;28;20048;-72
2023/07/15 03:05:44;;;;;;;3.65;1.70;;;;;;;-146.25;63.94;52076.22;2096679;28;29853;-73
2023/07/15 03:06:46;;;;;;;4.32;1.50;;;;;;;-146.25;63.72;52078.25;2097002;28;29702;-73
2023/07/15 03:07:49;;;;;;;3.45;1.70;;;;;;;-146.25;63.22;52080.28;2096765;28;30301;-74
2023/07/15 03:08:52;;;;;;;2.67;1.55;;;;;;;-146.25;63.88;52082.31;2097961;28;20056;-74
2023/07/15 03:09:53;;;;;;;4.03;1.58;;;;;;;-146.25;62.62;52090.44;2096095;28;34203;-74
2023/07/15 03:10:56;;;;;;;3.17;1.40;;;;;;;-146.25;63.03;52060.00;2097070;28;20082;-74
2023/07/15 03:11:58;;;;;;;3.40;1.33;;;;;;;-146.25;62.99;52070.16;2104825;28;20226;-73
2023/07/15 03:13:00;;;;;;;3.50;1.40;;;;;;;-146.25;63.06;52068.13;2104962;28;32424;-74
2023/07/15 03:14:01;;;;;;;2.92;1.42;;;;;;;-146.25;63.19;52116.78;2096198;28;26012;-74
2023/07/15 03:15:05;;;;;;;4.22;1.60;;;;;;;-146.25;62.71;52092.44;2097378;28;28862;-73
2023/07/15 03:16:07;;;;;;;3.85;1.23;;;;;;;-146.25;62.67;52084.34;2097407;28;20297;-72
2023/07/15 03:17:10;;;;;;;2.80;1.52;;;;;;;-146.25;63.18;52090.44;2096160;28;29514;-72
2023/07/15 03:18:14;;;;;;;2.15;1.27;;;;;;;-146.25;62.53;52090.44;2087917;28;29783;-74
2023/07/15 03:19:17;;;;;;;2.20;1.50;;;;;;;-146.25;63.10;52037.72;2089484;28;20144;-72
2023/07/15 03:20:19;;;;;;;3.85;1.50;;;;;;;-146.25;62.88;52064.06;2088470;28;20037;-72
2023/07/15 03:21:25;;;;;;;4.53;1.25;;;;;;;-146.25;63.52;52064.06;2097102;28;20172;-74
2023/07/15 03:22:26;;;;;;;2.80;1.52;;;;;;;-146.25;63.38;52084.34;2095939;28;35826;-72
2023/07/15 03:23:28;;;;;;;3.60;1.30;;;;;;;-146.25;63.70;52074.22;2096708;28;31597;-73
2023/07/15 03:24:30;;;;;;;3.90;1.88;;;;;;;-146.25;63.14;52100.56;2096572;28;29986;-72
2023/07/15 03:25:32;;;;;;;2.50;1.58;;;;;;;-146.25;63.70;52080.28;2097038;28;33836;-72
2023/07/15 03:26:34;;;;;;;4.85;1.40;;;;;;;-146.25;63.44;52078.25;2097044;28;26493;-72
2023/07/15 03:27:38;;;;;;;3.90;1.40;;;;;;;-146.25;64.17;52090.44;2097616;28;20896;-73
2023/07/15 03:28:39;;;;;;;4.38;1.65;;;;;;;-146.25;64.29;52080.28;2096692;28;20046;-74
2023/07/15 03:29:41;;;;;;;5.97;1.70;;;;;;;-146.25;64.18;52106.66;2096247;28;32134;-72
2023/07/15 03:30:43;;;;;;;3.70;1.35;;;;;;;-146.25;63.58;52084.34;2096160;28;29196;-74
2023/07/15 03:31:45;;;;;;;2.78;1.38;;;;;;;-146.25;63.65;52055.97;2097103;28;29452;-74
2023/07/15 03:32:47;;;;;;;2.83;1.30;;;;;;;-146.25;63.77;52094.47;2096898;28;22734;-74
2023/07/15 03:33:51;;;;;;;4.55;1.60;;;;;;;-146.25;64.01;52102.59;2104985;28;20045;-74
2023/07/15 03:34:53;;;;;;;4.05;1.48;;;;;;;-146.25;63.80;52082.31;2104579;28;20629;-72
2023/07/15 03:35:58;;;;;;;2.35;1.60;;;;;;;-146.25;63.81;52100.56;2096822;28;31990;-73
2023/07/15 03:37:00;;;;;;;3.20;1.50;;;;;;;-146.25;63.96;52092.44;2097293;28;20056;-72
2023/07/15 03:38:02;;;;;;;3.75;1.48;;;;;;;-146.25;63.71;52096.50;2097066;28;23119;-73
2023/07/15 03:39:07;;;;;;;3.25;1.40;;;;;;;-146.25;64.22;52055.97;2097577;28;20033;-72
2023/07/15 03:40:13;;;;;;;4.25;1.60;;;;;;;-146.25;64.03;52100.56;2096368;28;32880;-72
2023/07/15 03:41:17;;;;;;;3.85;1.50;;;;;;;-146.25;64.22;52090.44;2095532;28;36449;-73
2023/07/15 03:42:19;;;;;;;3.15;1.50;;;;;;;-146.25;64.32;52076.22;2096608;28;26104;-72
2023/07/15 03:43:20;;;;;;;6.90;1.75;;;;;;;-146.25;64.50;52088.41;2097132;28;20130;-72
2023/07/15 03:44:22;;;;;;;5.72;1.55;;;;;;;-146.25;64.12;52064.06;2096611;28;36352;-72
2023/07/15 03:45:24;;;;;;;4.97;1.55;;;;;;;-146.25;64.28;52064.06;2096607;28;33668;-74
2023/07/15 03:46:26;;;;;;;3.55;1.80;;;;;;;-146.25;64.16;52092.44;2096526;28;36120;-72
2023/07/15 03:47:30;;;;;;;2.58;1.45;;;;;;;-146.25;64.45;52066.09;2104659;28;36251;-72
2023/07/15 03:48:32;;;;;;;4.00;1.52;;;;;;;-146.25;64.56;52080.28;2104277;28;33003;-73
2023/07/15 03:49:34;;;;;;;2.60;1.63;;;;;;;-146.25;64.31;52080.28;2104152;28;35699;-73
2023/07/15 03:50:35;;;;;;;2.83;1.17;;;;;;;-146.25;64.03;52070.16;2097058;28;32039;-73
2023/07/15 03:51:37;;;;;;;2.88;1.55;;;;;;;-146.25;64.22;52064.06;2096300;28;33814;-72
2023/07/15 03:52:39;;;;;;;2.92;1.50;;;;;;;-146.25;64.26;52070.16;2096527;28;35455;-72
2023/07/15 03:53:41;;;;;;;2.90;1.50;;;;;;;-146.25;64.36;52053.94;2097626;28;20033;-74
2023/07/15 03:54:43;;;;;;;3.47;1.58;;;;;;;-146.25;63.82;52072.19;2096386;28;36957;-73
2023/07/15 03:55:45;;;;;;;2.10;1.33;;;;;;;-146.25;64.14;52110.69;2096442;28;20175;-72
2023/07/15 03:56:47;;;;;;;3.65;1.30;;;;;;;-146.25;63.64;52066.09;2096167;28;37792;-73
2023/07/15 03:57:51;;;;;;;3.72;1.45;;;;;;;-146.25;63.58;52088.41;2095785;28;35772;-72
2023/07/15 03:58:55;;;;;;;3.35;1.38;;;;;;;-146.25;63.58;52066.09;2095869;28;32869;-72
2023/07/15 03:59:59;;;;;;;2.75;1.40;;;;;;;-146.25;63.12;52096.50;2095688;28;37839;-73
2023/07/15 04:01:01;;;;;;;4.05;1.40;;;;;;;-146.25;62.28;52074.22;2096818;28;20122;-72
2023/07/15 04:02:03;;;;;;;2.17;1.40;;;;;;;-146.25;62.36;52084.34;2096519;28;36011;-73
2023/07/15 04:03:08;;;;;;;3.45;1.25;;;;;;;-146.25;61.21;52092.44;2097205;28;20072;-73
2023/07/15 04:04:09;;;;;;;4.13;1.35;;;;;;;-146.25;60.93;52106.66;2096612;28;30813;-72
2023/07/15 04:05:11;;;;;;;2.17;1.33;;;;;;;-146.25;61.02;52086.38;2096390;28;33885;-73
2023/07/15 04:06:13;;;;;;;7.55;1.63;;;;;;;-146.25;60.75;52116.78;2096505;28;36195;-73
2023/07/15 04:07:16;;;;;;;3.35;1.40;;;;;;;-146.25;60.83;52100.56;2096992;28;32222;-73
2023/07/15 04:08:20;;;;;;;4.15;1.40;;;;;;;-146.25;60.19;52090.44;2097124;28;20037;-73
2023/07/15 04:09:24;;;;;;;4.78;1.42;;;;;;;-146.25;59.85;52066.09;2096637;28;32632;-72
2023/07/15 04:10:26;;;;;;;3.08;1.30;;;;;;;-146.25;59.49;52064.06;2095944;28;33540;-73
2023/07/15 04:11:28;;;;;;;4.47;1.60;;;;;;;-146.25;58.82;52078.25;2104323;28;35723;-73
2023/07/15 04:12:30;;;;;;;4.07;1.50;;;;;;;-146.25;57.83;52055.97;2103919;28;32282;-72
2023/07/15 04:13:31;;;;;;;3.83;1.27;;;;;;;-146.25;57.46;52072.19;2103957;28;34589;-72
2023/07/15 04:14:33;;;;;;;3.40;1.35;;;;;;;-146.25;56.28;52112.72;2096598;28;32433;-74
2023/07/15 04:15:35;;;;;;;3.75;1.35;;;;;;;-146.25;55.32;52088.41;2097753;28;20037;-74
2023/07/15 04:16:37;;;;;;;5.45;1.35;;;;;;;-146.25;53.40;52051.91;2096395;28;40315;-74
2023/07/15 04:17:39;;;;;;;2.40;1.30;;;;;;;-146.25;53.04;52072.19;2096725;28;32654;-73
2023/07/15 04:18:42;;;;;;;4.53;1.90;;;;;;;-146.25;52.62;52096.50;2096135;28;34052;-74
2023/07/15 04:19:44;;;;;;;3.67;1.50;;;;;;;-146.25;51.40;52088.41;2097177;28;33978;-73
2023/07/15 04:20:45;;;;;;;2.42;1.23;;;;;;;-146.25;50.48;52110.69;2096183;28;35213;-74
2023/07/15 04:21:50;;;;;;;2.90;1.42;;;;;;;-146.25;50.16;52100.56;2096678;28;35457;-74
2023/07/15 04:22:52;;;;;;;2.92;1.33;;;;;;;-146.25;49.59;52062.03;2096874;28;20176;-74
2023/07/15 04:23:54;;;;;;;4.65;1.38;;;;;;;-146.25;48.72;52090.44;2096619;28;34703;-74
2023/07/15 04:24:58;;;;;;;2.28;1.23;;;;;;;-146.25;47.68;52082.31;2096177;28;36886;-73
2023/07/15 04:26:00;;;;;;;3.03;1.33;;;;;;;-146.25;47.42;52072.19;2096470;28;34602;-73
2023/07/15 04:27:02;;;;;;;2.33;1.10;;;;;;;-146.25;45.85;52068.13;2096317;28;35173;-74
2023/07/15 04:28:06;;;;;;;1.90;1.25;;;;;;;-146.25;45.42;52051.91;2096660;28;35411;-72
2023/07/15 04:29:08;;;;;;;3.10;1.30;;;;;;;-146.25;44.82;52090.44;2096295;28;20037;-73
2023/07/15 04:30:11;;;;;;;4.20;1.35;;;;;;;-146.25;45.28;52039.75;2096279;28;35719;-72
2023/07/15 04:31:13;;;;;;;4.35;1.40;;;;;;;-146.25;45.27;52029.59;2096165;28;35409;-74
2023/07/15 04:32:15;;;;;;;4.05;1.67;;;;;;;-146.25;43.64;52045.81;2096646;28;33622;-73
2023/07/15 04:33:16;;;;;;;3.63;1.33;;;;;;;-146.25;43.71;52053.94;2096122;28;35489;-73
2023/07/15 04:34:18;;;;;;;2.47;1.40;;;;;;;-146.25;43.79;52055.97;2096598;28;32081;-74
2023/07/15 04:35:20;;;;;;;3.03;1.17;;;;;;;-146.25;43.50;52058.00;2096030;28;35233;-73
2023/07/15 04:36:27;;;;;;;3.15;1.02;;;;;;;-146.25;43.69;52076.22;2097211;28;20969;-73
2023/07/15 04:37:30;;;;;;;1.55;0.95;;;;;;;-146.25;41.95;52023.53;2096480;28;31901;-73
2023/07/15 04:38:32;;;;;;;2.15;1.20;;;;;;;-146.25;42.28;52029.59;2104676;28;32260;-73
2023/07/15 04:39:34;;;;;;;4.22;1.33;;;;;;;-146.25;41.93;52039.75;2103485;28;30043;-73
2023/07/15 04:40:37;;;;;;;3.38;1.20;;;;;;;-146.25;41.87;52043.78;2095713;28;36300;-73
2023/07/15 04:41:38;;;;;;;2.42;1.30;;;;;;;-146.25;42.43;52047.84;2096161;28;32936;-72
2023/07/15 04:42:40;;;;;;;2.58;1.23;;;;;;;-146.25;43.25;52043.78;2096545;28;35044;-72
2023/07/15 04:43:44;;;;;;;2.63;1.17;;;;;;;-146.25;43.36;52015.41;2095940;28;35096;-72
2023/07/15 04:44:46;;;;;;;2.30;1.13;;;;;;;-146.25;43.39;52027.56;2095862;28;31178;-73
2023/07/15 04:45:48;;;;;;;1.75;1.00;;;;;;;-146.25;44.15;52031.63;2096344;28;20767;-72
2023/07/15 04:46:49;;;;;;;1.88;1.20;;;;;;;-146.25;43.64;52051.91;2096490;28;35911;-73
2023/07/15 04:47:51;;;;;;;3.17;1.15;;;;;;;-146.25;43.71;52072.19;2096619;28;20163;-73
2023/07/15 04:48:53;;;;;;;1.90;1.35;;;;;;;-146.25;43.32;52041.75;2096652;28;34766;-73
2023/07/15 04:49:55;;;;;;;4.90;1.50;;;;;;;-146.25;43.33;52045.81;2095922;28;36712;-73
2023/07/15 04:50:57;;;;;;;2.13;1.30;;;;;;;-146.25;42.96;52011.34;2096191;28;36842;-73
2023/07/15 04:51:59;;;;;;;2.40;1.30;;;;;;;-146.25;42.34;52062.03;2096052;28;34146;-73